createdAt,value
2023-02-17T00:00:07.979Z,3.03
2023-02-17T00:02:37.633Z,3.22
2023-02-17T00:05:06.388Z,6.68
2023-02-17T00:07:34.973Z,2.72
2023-02-17T00:10:03.446Z,5.40
2023-02-17T00:12:31.597Z,4.18
2023-02-17T00:14:59.801Z,7.03
2023-02-17T00:17:27.897Z,4.43
2023-02-17T00:19:57.479Z,4.88
2023-02-17T00:22:25.730Z,3.28
2023-02-17T00:24:53.853Z,2.08
2023-02-17T00:27:22.102Z,3.67
2023-02-17T00:29:50.273Z,7.15
2023-02-17T00:32:18.424Z,1.08
2023-02-17T00:34:46.787Z,1.80
2023-02-17T00:37:16.350Z,4.13
2023-02-17T00:39:44.725Z,9.45
2023-02-17T00:42:12.899Z,6.72
2023-02-17T00:44:41.039Z,2.67
2023-02-17T00:47:09.600Z,3.42
2023-02-17T00:49:37.827Z,5.03
2023-02-17T00:52:06.429Z,7.03
2023-02-17T00:54:36.085Z,1.73
2023-02-17T00:57:04.332Z,2.80
2023-02-17T00:59:32.447Z,2.03
2023-02-17T01:02:00.691Z,2.92
2023-02-17T01:04:28.940Z,3.72
2023-02-17T01:06:57.100Z,4.13
2023-02-17T01:09:25.361Z,4.13
2023-02-17T01:11:54.875Z,2.05
2023-02-17T01:14:22.997Z,3.80
2023-02-17T01:16:51.230Z,4.43
2023-02-17T01:19:20.707Z,0.70
2023-02-17T01:21:49.161Z,3.97
2023-02-17T01:24:17.241Z,4.95
2023-02-17T01:26:45.503Z,4.35
2023-02-17T01:29:15.046Z,5.93
2023-02-17T01:31:43.407Z,5.15
2023-02-17T01:34:11.907Z,1.02
2023-02-17T01:36:40.302Z,6.53
2023-02-17T01:39:08.541Z,5.60
2023-02-17T01:41:36.742Z,1.70
2023-02-17T01:44:23.181Z,2.30
2023-02-17T01:46:53.083Z,0.75
2023-02-17T01:49:31.727Z,0.77
2023-02-17T01:52:07.366Z,1.38
2023-02-17T01:54:39.331Z,1.67
2023-02-17T01:57:07.660Z,1.30
2023-02-17T01:59:37.707Z,4.05
2023-02-17T02:02:07.803Z,3.03
2023-02-17T02:04:39.078Z,4.38
2023-02-17T02:07:15.435Z,2.50
2023-02-17T02:09:50.289Z,3.25
2023-02-17T02:12:20.533Z,1.17
2023-02-17T02:14:51.986Z,1.48
2023-02-17T02:17:33.462Z,1.05
2023-02-17T02:20:29.771Z,3.05
2023-02-17T02:23:17.029Z,1.00
2023-02-17T02:26:31.812Z,4.07
2023-02-17T02:29:26.533Z,0.43
2023-02-17T02:32:10.823Z,2.42
2023-02-17T02:34:47.782Z,1.15
2023-02-17T02:37:22.842Z,0.68
2023-02-17T02:39:54.946Z,0.80
2023-02-17T02:42:25.714Z,0.95
2023-02-17T02:44:53.873Z,1.57
2023-02-17T02:47:45.281Z,1.77
2023-02-17T02:50:17.565Z,0.98
2023-02-17T02:53:05.647Z,0.47
2023-02-17T02:55:49.656Z,0.88
2023-02-17T02:58:22.853Z,0.38
2023-02-17T03:00:59.075Z,0.20
2023-02-17T03:03:36.394Z,0.50
2023-02-17T03:06:13.138Z,2.20
2023-02-17T03:08:46.582Z,0.10
2023-02-17T03:11:15.985Z,1.30
2023-02-17T03:13:44.178Z,0.30
2023-02-17T03:16:14.914Z,0.20
2023-02-17T03:18:43.483Z,0.77
2023-02-17T03:21:17.192Z,0.17
2023-02-17T03:23:45.404Z,0.20
2023-02-17T03:26:13.509Z,0.20
2023-02-17T03:28:41.730Z,0.63
2023-02-17T03:31:09.939Z,0.30
2023-02-17T03:33:38.064Z,0.65
2023-02-17T03:36:07.417Z,0.63
2023-02-17T03:38:37.154Z,0.38
2023-02-17T03:41:05.690Z,2.15
2023-02-17T03:43:33.811Z,0.20
2023-02-17T03:46:02.375Z,0.43
2023-02-17T03:48:30.874Z,1.20
2023-02-17T03:50:59.035Z,1.60
2023-02-17T03:53:27.165Z,0.90
2023-02-17T03:55:56.717Z,0.10
2023-02-17T03:58:24.882Z,0.10
2023-02-17T04:00:52.984Z,0.17
2023-02-17T04:03:21.035Z,4.05
2023-02-17T04:05:49.163Z,0.90
2023-02-17T04:08:17.202Z,0.52
2023-02-17T04:10:45.531Z,0.17
2023-02-17T04:13:15.153Z,1.55
2023-02-17T04:15:43.272Z,0.20
2023-02-17T04:18:11.364Z,1.42
2023-02-17T04:20:39.556Z,0.60
2023-02-17T04:23:07.872Z,0.40
2023-02-17T04:25:36.487Z,0.88
2023-02-17T04:28:05.761Z,1.83
2023-02-17T04:30:35.949Z,1.95
2023-02-17T04:33:05.485Z,0.52
2023-02-17T04:35:33.724Z,1.10
2023-02-17T04:38:01.766Z,0.52
2023-02-17T04:40:29.963Z,0.20
2023-02-17T04:42:58.113Z,0.13
2023-02-17T04:45:26.325Z,0.25
2023-02-17T04:47:55.934Z,0.20
2023-02-17T04:50:24.253Z,0.15
2023-02-17T04:52:52.468Z,0.30
2023-02-17T04:55:20.881Z,1.17
2023-02-17T04:57:49.029Z,0.10
2023-02-17T05:00:17.657Z,0.22
2023-02-17T05:02:46.621Z,0.57
2023-02-17T05:05:18.950Z,0.20
2023-02-17T05:07:47.539Z,0.10
2023-02-17T05:10:17.477Z,0.20
2023-02-17T05:12:45.675Z,0.75
2023-02-17T05:15:14.720Z,0.20
2023-02-17T05:17:43.053Z,0.10
2023-02-17T05:20:12.047Z,1.17
2023-02-17T05:22:41.768Z,0.30
2023-02-17T05:25:10.244Z,0.30
2023-02-17T05:27:38.404Z,0.10
2023-02-17T05:30:07.880Z,0.10
2023-02-17T05:32:36.130Z,0.20
2023-02-17T05:35:04.414Z,0.30
2023-02-17T05:37:32.544Z,0.20
2023-02-17T05:40:02.017Z,0.15
2023-02-17T05:42:30.632Z,0.13
2023-02-17T05:44:58.792Z,0.32
2023-02-17T05:47:27.749Z,0.10
2023-02-17T05:49:56.199Z,1.45
2023-02-17T05:52:24.330Z,0.10
2023-02-17T05:54:52.504Z,0.38
2023-02-17T05:57:22.052Z,0.10
2023-02-17T05:59:50.544Z,0.52
2023-02-17T06:02:18.936Z,0.85
2023-02-17T06:04:47.446Z,0.15
2023-02-17T06:07:18.769Z,0.17
2023-02-17T06:09:47.364Z,0.47
2023-02-17T06:12:17.460Z,0.10
2023-02-17T06:14:47.014Z,0.10
2023-02-17T06:17:15.432Z,0.52
2023-02-17T06:19:43.621Z,2.20
2023-02-17T06:22:11.872Z,0.20
2023-02-17T06:24:39.987Z,1.10
2023-02-17T06:27:08.320Z,0.32
2023-02-17T06:29:36.408Z,0.25
2023-02-17T06:32:06.525Z,0.10
2023-02-17T06:34:34.693Z,1.52
2023-02-17T06:37:02.857Z,1.85
2023-02-17T06:39:31.220Z,0.43
2023-02-17T06:41:59.433Z,0.80
2023-02-17T06:44:30.354Z,1.20
2023-02-17T06:46:59.457Z,1.00
2023-02-17T06:49:29.226Z,0.30
2023-02-17T06:51:57.473Z,0.30
2023-02-17T06:54:26.003Z,2.15
2023-02-17T06:56:54.156Z,2.72
2023-02-17T06:59:22.259Z,0.85
2023-02-17T07:01:50.723Z,1.27
2023-02-17T07:04:19.039Z,0.57
2023-02-17T07:06:48.633Z,1.10
2023-02-17T07:09:16.707Z,0.85
2023-02-17T07:11:45.456Z,0.55
2023-02-17T07:14:13.599Z,2.78
2023-02-17T07:16:41.777Z,3.95
2023-02-17T07:19:10.033Z,0.93
2023-02-17T07:21:38.896Z,0.68
2023-02-17T07:24:13.370Z,1.98
2023-02-17T07:26:41.923Z,2.50
2023-02-17T07:29:10.091Z,5.35
2023-02-17T07:31:38.546Z,1.55
2023-02-17T07:34:06.919Z,3.00
2023-02-17T07:36:35.019Z,4.13
2023-02-17T07:39:04.137Z,4.88
2023-02-17T07:41:33.836Z,8.02
2023-02-17T07:44:02.011Z,8.05
2023-02-17T07:46:30.235Z,7.57
2023-02-17T07:48:58.435Z,6.57
2023-02-17T07:51:26.922Z,15.40
2023-02-17T07:53:55.473Z,15.52
2023-02-17T07:56:24.532Z,6.30
2023-02-17T07:58:54.024Z,7.45
2023-02-17T08:01:25.293Z,13.18
2023-02-17T08:03:54.278Z,10.98
2023-02-17T08:06:29.039Z,25.00
2023-02-17T08:09:17.254Z,14.77
2023-02-17T08:12:03.153Z,17.42
2023-02-17T08:14:33.474Z,28.98
2023-02-17T08:17:02.160Z,14.45
2023-02-17T08:19:46.526Z,15.15
2023-02-17T08:22:15.955Z,19.98
2023-02-17T08:24:44.059Z,17.48
2023-02-17T08:27:12.235Z,17.80
2023-02-17T08:29:42.783Z,17.60
2023-02-17T08:32:11.204Z,18.30
2023-02-17T08:34:39.390Z,20.15
2023-02-17T08:37:11.651Z,20.50
2023-02-17T08:39:40.070Z,17.50
2023-02-17T08:42:08.264Z,18.60
2023-02-17T08:44:37.861Z,24.67
2023-02-17T08:47:08.955Z,20.30
2023-02-17T08:49:37.528Z,24.55
2023-02-17T08:52:06.064Z,20.15
2023-02-17T08:54:34.764Z,31.27
2023-02-17T08:57:02.832Z,21.73
2023-02-17T08:59:31.045Z,24.35
2023-02-17T09:01:59.987Z,25.25
2023-02-17T09:04:29.553Z,18.40
2023-02-17T09:06:58.498Z,24.50
2023-02-17T09:09:28.010Z,24.63
2023-02-17T09:11:58.320Z,23.02
2023-02-17T09:14:27.319Z,27.10
2023-02-17T09:16:56.774Z,38.75
2023-02-17T09:19:25.786Z,28.73
2023-02-17T09:21:55.486Z,31.00
2023-02-17T09:24:26.328Z,29.25
2023-02-17T09:26:54.472Z,30.33
2023-02-17T09:29:22.839Z,23.40
2023-02-17T09:31:51.143Z,25.00
2023-02-17T09:34:19.406Z,26.00
2023-02-17T09:36:47.606Z,28.02
2023-02-17T09:39:17.414Z,32.38
2023-02-17T09:41:50.289Z,29.40
2023-02-17T09:44:22.313Z,37.25
2023-02-17T09:47:02.071Z,32.17
2023-02-17T09:49:39.198Z,28.33
2023-02-17T09:52:12.310Z,33.97
2023-02-17T09:54:50.028Z,33.03
2023-02-17T09:57:21.312Z,38.13
2023-02-17T09:59:54.558Z,38.50
2023-02-17T10:02:28.600Z,31.80
2023-02-17T10:05:02.544Z,24.98
2023-02-17T10:07:33.990Z,28.17
2023-02-17T10:10:09.672Z,40.80
2023-02-17T10:12:41.708Z,27.80
2023-02-17T10:15:16.637Z,25.85
2023-02-17T10:17:52.026Z,24.55
2023-02-17T10:20:24.998Z,28.02
2023-02-17T10:22:57.392Z,31.85
2023-02-17T10:25:45.827Z,28.98
2023-02-17T10:28:23.337Z,36.72
2023-02-17T10:31:03.064Z,27.40
2023-02-17T10:33:37.300Z,31.67
2023-02-17T10:36:13.845Z,25.50
2023-02-17T10:38:51.749Z,25.23
2023-02-17T10:41:27.878Z,27.13
2023-02-17T10:43:56.894Z,25.10
2023-02-17T10:46:31.334Z,32.15
2023-02-17T10:49:01.006Z,26.50
2023-02-17T10:51:31.376Z,25.15
2023-02-17T10:54:05.083Z,23.23
2023-02-17T10:56:39.731Z,22.55
2023-02-17T10:59:15.799Z,27.63
2023-02-17T11:01:44.659Z,31.25
2023-02-17T11:04:14.448Z,38.80
2023-02-17T11:06:45.824Z,23.40
2023-02-17T11:09:22.003Z,27.25
2023-02-17T11:12:00.320Z,36.72
2023-02-17T11:14:30.897Z,25.48
2023-02-17T11:17:01.804Z,30.03
2023-02-17T11:19:34.033Z,21.23
2023-02-17T11:22:04.145Z,36.03
2023-02-17T11:24:34.872Z,37.03
2023-02-17T11:27:09.443Z,32.67
2023-02-17T11:29:37.865Z,31.17
2023-02-17T11:32:09.216Z,25.08
2023-02-17T11:34:39.270Z,29.40
2023-02-17T11:37:21.599Z,32.33
2023-02-17T11:39:51.530Z,27.88
2023-02-17T11:42:24.826Z,31.42
2023-02-17T11:44:53.898Z,28.88
2023-02-17T11:47:35.056Z,28.95
2023-02-17T11:50:40.421Z,27.48
2023-02-17T11:53:23.169Z,18.55
2023-02-17T11:56:03.471Z,13.82
2023-02-17T11:58:46.633Z,14.43
2023-02-17T12:01:31.233Z,13.02
2023-02-17T12:04:25.914Z,14.27
2023-02-17T12:07:08.088Z,18.73
2023-02-17T12:09:46.416Z,11.48
2023-02-17T12:12:27.898Z,9.10
2023-02-17T12:15:07.119Z,9.93
2023-02-17T12:17:46.017Z,15.07
2023-02-17T12:20:33.309Z,10.88
2023-02-17T12:23:17.522Z,8.73
2023-02-17T12:25:48.351Z,11.75
2023-02-17T12:28:43.217Z,6.15
2023-02-17T12:31:22.769Z,11.68
2023-02-17T12:33:59.897Z,11.25
2023-02-17T12:36:32.903Z,10.10
2023-02-17T12:39:05.369Z,12.68
2023-02-17T12:41:38.053Z,10.55
2023-02-17T12:44:13.929Z,12.48
2023-02-17T12:46:46.173Z,15.75
2023-02-17T12:49:18.068Z,10.80
2023-02-17T12:51:51.114Z,10.30
2023-02-17T12:54:22.378Z,11.80
2023-02-17T12:57:06.352Z,16.25
2023-02-17T12:59:36.436Z,14.73
2023-02-17T13:02:08.927Z,14.38
2023-02-17T13:04:37.716Z,11.73
2023-02-17T13:07:20.921Z,15.32
2023-02-17T13:09:51.101Z,15.18
2023-02-17T13:12:35.603Z,13.43
2023-02-17T13:15:06.669Z,12.95
2023-02-17T13:17:40.416Z,21.60
2023-02-17T13:20:28.347Z,19.55
2023-02-17T13:23:12.602Z,22.67
2023-02-17T13:25:41.405Z,14.32
2023-02-17T13:28:33.720Z,22.40
2023-02-17T13:31:17.842Z,21.02
2023-02-17T13:33:50.020Z,17.60
2023-02-17T13:36:35.414Z,26.45
2023-02-17T13:39:08.543Z,26.38
2023-02-17T13:41:47.358Z,23.08
2023-02-17T13:44:28.718Z,24.50
2023-02-17T13:47:00.234Z,23.65
2023-02-17T13:49:34.005Z,24.77
2023-02-17T13:52:10.980Z,16.25
2023-02-17T13:54:42.058Z,23.50
2023-02-17T13:57:24.412Z,22.75
2023-02-17T13:59:52.613Z,26.85
2023-02-17T14:02:35.513Z,15.27
2023-02-17T14:05:18.248Z,16.77
2023-02-17T14:07:48.575Z,24.70
2023-02-17T14:10:21.510Z,27.27
2023-02-17T14:12:50.343Z,21.13
2023-02-17T14:15:20.207Z,19.25
2023-02-17T14:17:48.763Z,27.92
2023-02-17T14:20:30.387Z,19.35
2023-02-17T14:25:37.955Z,24.98
2023-02-17T14:28:18.496Z,20.45
2023-02-17T14:30:46.959Z,24.05
2023-02-17T14:33:22.217Z,23.23
2023-02-17T14:35:57.399Z,20.80
2023-02-17T14:38:28.360Z,24.27
2023-02-17T14:40:57.065Z,25.50
2023-02-17T14:43:26.028Z,35.45
2023-02-17T14:45:54.457Z,23.20
2023-02-17T14:48:22.656Z,21.00
2023-02-17T14:50:50.963Z,23.83
2023-02-17T14:53:25.893Z,21.35
2023-02-17T14:55:59.590Z,23.38
2023-02-17T14:58:29.427Z,25.98
2023-02-17T15:00:58.201Z,19.13
2023-02-17T15:03:26.854Z,23.95
2023-02-17T15:05:55.821Z,22.67
2023-02-17T15:08:32.479Z,27.73
2023-02-17T15:11:01.061Z,28.58
2023-02-17T15:13:31.743Z,24.65
2023-02-17T15:16:00.484Z,25.05
2023-02-17T15:18:28.860Z,26.30
2023-02-17T15:20:58.306Z,30.30
2023-02-17T15:23:31.758Z,23.17
2023-02-17T15:26:00.508Z,28.75
2023-02-17T15:28:28.900Z,15.65
2023-02-17T15:30:58.170Z,18.77
2023-02-17T15:33:26.436Z,24.90
2023-02-17T15:35:56.156Z,19.83
2023-02-17T15:38:25.015Z,18.98
2023-02-17T15:40:56.935Z,17.30
2023-02-17T15:43:31.464Z,24.50
2023-02-17T15:45:59.538Z,34.05
2023-02-17T15:48:32.087Z,24.58
2023-02-17T15:51:00.238Z,28.05
2023-02-17T15:53:32.593Z,28.05
2023-02-17T15:56:02.402Z,23.90
2023-02-17T15:58:31.729Z,32.25
2023-02-17T16:01:04.046Z,28.02
2023-02-17T16:03:32.420Z,37.17
2023-02-17T16:06:00.531Z,32.22
2023-02-17T16:08:28.743Z,34.17
2023-02-17T16:10:56.953Z,34.88
2023-02-17T16:13:28.337Z,29.65
2023-02-17T16:15:59.608Z,22.98
2023-02-17T16:18:27.861Z,33.10
2023-02-17T16:20:55.998Z,24.58
2023-02-17T16:23:24.208Z,22.00
2023-02-17T16:25:52.486Z,24.65
2023-02-17T16:28:23.293Z,27.95
2023-02-17T16:30:52.791Z,23.50
2023-02-17T16:33:20.932Z,22.65
2023-02-17T16:35:51.629Z,23.10
2023-02-17T16:38:23.339Z,44.25
2023-02-17T16:40:54.958Z,20.13
2023-02-17T16:43:25.468Z,13.60
2023-02-17T16:45:58.025Z,33.63
2023-02-17T16:48:29.449Z,24.40
2023-02-17T16:50:57.943Z,25.80
2023-02-17T16:53:26.141Z,26.02
2023-02-17T16:55:55.535Z,22.00
2023-02-17T16:58:25.971Z,16.75
2023-02-17T17:00:57.169Z,16.15
2023-02-17T17:03:25.561Z,17.90
2023-02-17T17:05:54.085Z,18.67
2023-02-17T17:08:22.567Z,26.55
2023-02-17T17:10:50.887Z,21.48
2023-02-17T17:13:18.950Z,28.85
2023-02-17T17:15:47.447Z,16.08
2023-02-17T17:18:21.121Z,29.13
2023-02-17T17:20:49.693Z,21.02
2023-02-17T17:23:18.950Z,21.55
2023-02-17T17:25:48.628Z,27.42
2023-02-17T17:28:19.849Z,26.17
2023-02-17T17:30:48.676Z,23.80
2023-02-17T17:33:18.278Z,24.02
2023-02-17T17:35:46.416Z,28.23
2023-02-17T17:38:15.682Z,19.75
2023-02-17T17:40:49.334Z,17.58
2023-02-17T17:43:18.779Z,17.83
2023-02-17T17:45:47.382Z,23.40
2023-02-17T17:48:17.042Z,21.83
2023-02-17T17:50:46.877Z,15.55
2023-02-17T17:53:15.378Z,11.85
2023-02-17T17:55:43.589Z,17.40
2023-02-17T17:58:11.777Z,11.82
2023-02-17T18:00:39.861Z,14.65
2023-02-17T18:03:07.979Z,18.90
2023-02-17T18:05:36.910Z,16.48
2023-02-17T18:08:07.565Z,14.88
2023-02-17T18:10:35.903Z,13.03
2023-02-17T18:13:04.312Z,11.88
2023-02-17T18:15:32.515Z,12.05
2023-02-17T18:18:00.759Z,33.20
2023-02-17T18:20:28.936Z,23.98
2023-02-17T18:22:57.073Z,24.05
2023-02-17T18:25:26.707Z,15.23
2023-02-17T18:27:56.356Z,19.80
2023-02-17T18:30:25.238Z,7.38
2023-02-17T18:32:53.370Z,3.58
2023-02-17T18:35:22.401Z,8.75
2023-02-17T18:37:50.691Z,8.63
2023-02-17T18:40:22.150Z,8.25
2023-02-17T18:42:51.772Z,4.95
2023-02-17T18:45:20.174Z,4.43
2023-02-17T18:47:48.728Z,4.13
2023-02-17T18:50:17.444Z,10.82
2023-02-17T18:52:45.921Z,6.53
2023-02-17T18:55:14.438Z,9.65
2023-02-17T18:57:44.891Z,2.85
2023-02-17T19:00:16.931Z,3.47
2023-02-17T19:02:45.111Z,4.85
2023-02-17T19:05:13.658Z,6.32
2023-02-17T19:07:41.826Z,5.13
2023-02-17T19:10:12.014Z,5.30
2023-02-17T19:12:40.193Z,7.47
2023-02-17T19:15:09.091Z,4.32
2023-02-17T19:17:38.619Z,3.03
2023-02-17T19:20:07.912Z,6.80
2023-02-17T19:22:37.517Z,7.80
2023-02-17T19:25:06.590Z,4.60
2023-02-17T19:27:34.768Z,3.45
2023-02-17T19:30:03.238Z,3.75
2023-02-17T19:32:31.368Z,5.63
2023-02-17T19:35:00.931Z,6.35
2023-02-17T19:37:29.264Z,3.28
2023-02-17T19:39:57.549Z,9.27
2023-02-17T19:42:25.933Z,4.32
2023-02-17T19:44:54.181Z,8.55
2023-02-17T19:47:22.518Z,4.45
2023-02-17T19:49:50.915Z,4.45
2023-02-17T19:52:21.151Z,5.18
2023-02-17T19:54:50.224Z,6.90
2023-02-17T19:57:18.506Z,6.72
2023-02-17T19:59:46.784Z,8.57
2023-02-17T20:02:17.997Z,5.10
2023-02-17T20:04:46.946Z,7.53
2023-02-17T20:07:15.191Z,12.20
2023-02-17T20:09:44.757Z,14.60
2023-02-17T20:12:13.033Z,10.15
2023-02-17T20:14:42.243Z,23.35
2023-02-17T20:17:10.354Z,15.35
2023-02-17T20:19:39.294Z,11.02
2023-02-17T20:22:08.027Z,7.00
2023-02-17T20:24:38.051Z,8.55
2023-02-17T20:27:07.797Z,5.65
2023-02-17T20:29:36.654Z,11.55
2023-02-17T20:32:05.574Z,16.27
2023-02-17T20:34:36.052Z,8.68
2023-02-17T20:37:04.444Z,9.00
2023-02-17T20:39:32.626Z,8.38
2023-02-17T20:42:01.626Z,10.50
2023-02-17T20:44:31.363Z,9.30
2023-02-17T20:46:59.615Z,8.73
2023-02-17T20:49:27.826Z,10.52
2023-02-17T20:51:56.489Z,9.95
2023-02-17T20:54:26.256Z,8.07
2023-02-17T20:56:56.416Z,12.90
2023-02-17T20:59:24.627Z,8.45
2023-02-17T21:01:54.098Z,5.90
2023-02-17T21:04:22.382Z,5.65
2023-02-17T21:06:54.569Z,14.85
2023-02-17T21:09:22.694Z,8.25
2023-02-17T21:11:51.176Z,8.68
2023-02-17T21:14:19.218Z,6.50
2023-02-17T21:16:47.507Z,7.38
2023-02-17T21:19:17.406Z,6.38
2023-02-17T21:21:45.667Z,9.23
2023-02-17T21:24:13.891Z,12.60
2023-02-17T21:26:42.236Z,5.63
2023-02-17T21:29:10.484Z,10.88
2023-02-17T21:31:38.671Z,6.22
2023-02-17T21:34:07.464Z,8.52
2023-02-17T21:36:37.060Z,10.00
2023-02-17T21:39:06.190Z,17.85
2023-02-17T21:41:34.454Z,7.85
2023-02-17T21:44:20.053Z,10.95
2023-02-17T21:46:48.217Z,10.20
2023-02-17T21:49:16.747Z,11.55
2023-02-17T21:51:46.594Z,8.77
2023-02-17T21:54:15.644Z,9.13
2023-02-17T21:56:43.919Z,9.00
2023-02-17T21:59:12.080Z,7.82
2023-02-17T22:01:40.394Z,11.98
2023-02-17T22:04:09.033Z,6.60
2023-02-17T22:06:39.372Z,9.88
2023-02-17T22:09:10.789Z,9.13
2023-02-17T22:11:41.920Z,5.57
2023-02-17T22:14:13.811Z,12.93
2023-02-17T22:16:42.163Z,11.27
2023-02-17T22:19:14.543Z,10.35
2023-02-17T22:21:43.635Z,7.55
2023-02-17T22:24:14.139Z,8.45
2023-02-17T22:26:42.630Z,7.45
2023-02-17T22:29:11.003Z,10.68
2023-02-17T22:31:39.429Z,15.80
2023-02-17T22:34:10.069Z,10.52
2023-02-17T22:36:39.116Z,10.65
2023-02-17T22:39:08.809Z,12.77
2023-02-17T22:41:38.960Z,12.40
2023-02-17T22:44:07.178Z,7.65
2023-02-17T22:46:36.081Z,7.38
2023-02-17T22:49:04.286Z,8.02
2023-02-17T22:51:36.136Z,10.75
2023-02-17T22:54:05.083Z,12.10
2023-02-17T22:56:34.051Z,12.10
2023-02-17T22:59:05.554Z,17.83
2023-02-17T23:04:03.080Z,8.57
2023-02-17T23:06:33.112Z,4.38
2023-02-17T23:09:02.192Z,11.30
2023-02-17T23:11:49.863Z,9.80
2023-02-17T23:14:21.835Z,6.63
2023-02-17T23:16:50.413Z,5.95
2023-02-17T23:19:21.476Z,12.50
2023-02-17T23:21:51.919Z,6.20
2023-02-17T23:24:21.407Z,10.48
2023-02-17T23:26:50.132Z,13.48
2023-02-17T23:29:20.403Z,6.82
2023-02-17T23:31:48.597Z,9.15
2023-02-17T23:34:17.526Z,10.13
2023-02-17T23:36:47.023Z,8.23
2023-02-17T23:39:16.212Z,16.63
2023-02-17T23:41:44.688Z,9.85
2023-02-17T23:44:14.934Z,7.93
2023-02-17T23:46:46.978Z,10.02
2023-02-17T23:49:16.496Z,8.55
2023-02-17T23:51:46.978Z,7.32
2023-02-17T23:54:15.398Z,8.27
2023-02-17T23:56:43.867Z,8.63
2023-02-17T23:59:12.281Z,12.63
